createdAt,value
2019-04-26T00:01:29.435Z,0.73
2019-04-26T00:04:02.866Z,0.77
2019-04-26T00:06:36.359Z,0.80
2019-04-26T00:09:14.491Z,0.80
2019-04-26T00:11:55.516Z,0.77
2019-04-26T00:14:39.804Z,0.80
2019-04-26T00:17:17.584Z,0.80
2019-04-26T00:19:51.442Z,0.80
2019-04-26T00:22:25.550Z,1.07
2019-04-26T00:24:59.088Z,0.90
2019-04-26T00:27:32.557Z,0.80
2019-04-26T00:30:08.036Z,1.00
2019-04-26T00:32:41.507Z,0.80
2019-04-26T00:35:15.657Z,0.80
2019-04-26T00:37:49.484Z,0.83
2019-04-26T00:40:23.252Z,1.00
2019-04-26T00:42:58.364Z,0.80
2019-04-26T00:45:34.498Z,0.80
2019-04-26T00:48:09.320Z,0.83
2019-04-26T00:50:44.721Z,0.90
2019-04-26T00:53:19.623Z,0.80
2019-04-26T00:55:54.085Z,0.83
2019-04-26T00:58:29.462Z,1.00
2019-04-26T01:01:03.099Z,0.90
2019-04-26T01:03:36.596Z,1.00
2019-04-26T01:06:11.708Z,0.80
2019-04-26T01:08:45.137Z,0.90
2019-04-26T01:11:20.093Z,0.90
2019-04-26T01:13:53.537Z,1.00
2019-04-26T01:16:26.964Z,0.90
2019-04-26T01:19:00.405Z,1.07
2019-04-26T01:21:45.646Z,0.90
2019-04-26T01:24:21.588Z,1.10
2019-04-26T01:26:58.084Z,1.70
2019-04-26T01:29:32.060Z,1.07
2019-04-26T01:32:12.396Z,1.40
2019-04-26T01:37:42.176Z,1.53
2019-04-26T01:40:17.324Z,1.30
2019-04-26T01:43:01.777Z,1.30
2019-04-26T01:45:57.785Z,1.00
2019-04-26T01:48:55.521Z,0.93
2019-04-26T01:51:32.917Z,1.00
2019-04-26T01:54:08.741Z,1.00
2019-04-26T01:56:42.312Z,1.00
2019-04-26T01:59:18.360Z,1.20
2019-04-26T02:02:09.948Z,1.00
2019-04-26T02:04:53.851Z,1.00
2019-04-26T02:07:35.244Z,1.07
2019-04-26T02:10:20.506Z,0.93
2019-04-26T02:12:55.002Z,0.90
2019-04-26T02:15:31.485Z,0.90
2019-04-26T02:18:05.142Z,1.10
2019-04-26T02:20:55.662Z,1.90
2019-04-26T02:23:42.588Z,1.13
2019-04-26T02:26:34.858Z,1.17
2019-04-26T02:29:11.750Z,1.13
2019-04-26T02:31:48.424Z,1.00
2019-04-26T02:34:22.517Z,1.00
2019-04-26T02:36:59.299Z,1.00
2019-04-26T02:39:37.535Z,1.20
2019-04-26T02:42:32.908Z,1.13
2019-04-26T02:45:20.501Z,1.10
2019-04-26T02:48:14.305Z,1.20
2019-04-26T02:50:52.561Z,1.10
2019-04-26T02:53:50.135Z,1.10
2019-04-26T02:56:37.687Z,1.20
2019-04-26T02:59:14.117Z,1.33
2019-04-26T03:01:50.666Z,1.20
2019-04-26T03:04:26.737Z,1.20
2019-04-26T03:07:05.992Z,1.00
2019-04-26T03:09:43.178Z,1.30
2019-04-26T03:12:18.916Z,1.40
2019-04-26T03:15:13.534Z,1.30
2019-04-26T03:17:51.573Z,1.40
2019-04-26T03:20:32.555Z,1.30
2019-04-26T03:23:15.460Z,1.70
2019-04-26T03:25:54.836Z,1.50
2019-04-26T03:28:36.752Z,1.67
2019-04-26T03:31:39.105Z,1.53
2019-04-26T03:34:14.197Z,1.90
2019-04-26T03:37:24.332Z,1.87
2019-04-26T03:40:21.599Z,2.00
2019-04-26T03:43:00.591Z,1.70
2019-04-26T03:45:53.645Z,2.00
2019-04-26T03:48:52.769Z,1.70
2019-04-26T03:51:35.738Z,1.40
2019-04-26T03:54:13.059Z,1.50
2019-04-26T03:56:53.829Z,1.73
2019-04-26T03:59:49.800Z,1.70
2019-04-26T04:02:27.956Z,1.80
2019-04-26T04:05:11.653Z,1.60
2019-04-26T04:07:51.297Z,1.70
2019-04-26T04:10:30.603Z,1.90
2019-04-26T04:13:09.969Z,2.20
2019-04-26T04:15:52.784Z,4.37
2019-04-26T04:18:29.707Z,2.50
2019-04-26T04:21:28.427Z,2.33
2019-04-26T04:24:07.903Z,2.23
2019-04-26T04:26:50.236Z,2.63
2019-04-26T04:29:55.009Z,2.23
2019-04-26T04:32:32.088Z,2.30
2019-04-26T04:35:11.291Z,2.03
2019-04-26T04:38:08.599Z,2.30
2019-04-26T04:41:02.688Z,2.20
2019-04-26T04:43:41.864Z,2.30
2019-04-26T04:46:43.873Z,3.20
2019-04-26T04:49:44.994Z,3.33
2019-04-26T04:52:33.763Z,6.00
2019-04-26T04:55:16.071Z,2.90
2019-04-26T04:58:04.961Z,3.30
2019-04-26T05:01:11.342Z,2.30
2019-04-26T05:03:51.034Z,3.00
2019-04-26T05:06:29.332Z,2.93
2019-04-26T05:09:08.943Z,2.93
2019-04-26T05:12:00.371Z,2.60
2019-04-26T05:14:46.216Z,4.27
2019-04-26T05:17:46.147Z,3.87
2019-04-26T05:20:31.900Z,6.90
2019-04-26T05:23:14.927Z,3.00
2019-04-26T05:26:21.613Z,2.87
2019-04-26T05:29:25.267Z,3.00
2019-04-26T05:32:25.996Z,2.80
2019-04-26T05:35:49.101Z,3.03
2019-04-26T05:38:40.801Z,3.47
2019-04-26T05:41:26.770Z,2.83
2019-04-26T05:44:25.695Z,3.70
2019-04-26T05:47:15.357Z,3.33
2019-04-26T05:50:11.561Z,3.60
2019-04-26T05:53:06.519Z,3.97
2019-04-26T05:56:13.367Z,4.63
2019-04-26T05:59:10.808Z,4.60
2019-04-26T06:02:04.880Z,4.47
2019-04-26T06:05:17.319Z,4.50
2019-04-26T06:08:34.519Z,5.07
2019-04-26T06:11:12.663Z,4.47
2019-04-26T06:13:57.752Z,4.20
2019-04-26T06:17:04.936Z,4.20
2019-04-26T06:20:06.988Z,4.50
2019-04-26T06:22:57.490Z,4.80
2019-04-26T06:25:43.554Z,5.30
2019-04-26T06:28:39.604Z,4.30
2019-04-26T06:31:16.204Z,5.50
2019-04-26T06:34:10.763Z,4.70
2019-04-26T06:36:51.651Z,4.60
2019-04-26T06:39:59.959Z,5.07
2019-04-26T06:43:03.259Z,4.27
2019-04-26T06:46:02.692Z,5.00
2019-04-26T06:48:50.236Z,5.33
2019-04-26T06:51:32.322Z,4.83
2019-04-26T06:54:09.884Z,4.20
2019-04-26T06:57:12.665Z,5.17
2019-04-26T06:59:53.808Z,5.13
2019-04-26T07:02:58.941Z,7.33
2019-04-26T07:05:38.315Z,6.47
2019-04-26T07:08:29.986Z,4.83
2019-04-26T07:11:20.118Z,5.07
2019-04-26T07:14:19.647Z,5.30
2019-04-26T07:17:08.175Z,6.50
2019-04-26T07:20:09.703Z,5.17
2019-04-26T07:22:56.412Z,4.80
2019-04-26T07:25:50.976Z,4.43
2019-04-26T07:28:46.906Z,4.87
2019-04-26T07:31:53.502Z,4.50
2019-04-26T07:34:54.326Z,4.50
2019-04-26T07:37:47.123Z,4.30
2019-04-26T07:40:50.734Z,4.77
2019-04-26T07:43:31.575Z,4.40
2019-04-26T07:46:27.370Z,4.23
2019-04-26T07:49:31.175Z,4.17
2019-04-26T07:52:34.874Z,4.50
2019-04-26T07:55:28.113Z,4.23
2019-04-26T07:58:36.380Z,4.13
2019-04-26T08:01:35.255Z,4.50
2019-04-26T08:04:13.971Z,4.83
2019-04-26T08:06:52.138Z,3.90
2019-04-26T08:09:28.309Z,4.30
2019-04-26T08:12:06.101Z,3.73
2019-04-26T08:14:44.535Z,4.00
2019-04-26T08:17:25.652Z,3.90
2019-04-26T08:20:09.230Z,4.10
2019-04-26T08:22:44.581Z,4.13
2019-04-26T08:25:20.627Z,4.03
2019-04-26T08:27:57.120Z,3.70
2019-04-26T08:30:33.291Z,4.70
2019-04-26T08:33:12.787Z,3.20
2019-04-26T08:35:49.053Z,3.20
2019-04-26T08:38:23.908Z,2.80
2019-04-26T08:41:00.486Z,3.60
2019-04-26T08:43:55.798Z,3.00
2019-04-26T08:46:36.203Z,2.53
2019-04-26T08:49:13.118Z,2.93
2019-04-26T08:51:48.144Z,2.20
2019-04-26T08:54:24.985Z,2.20
2019-04-26T08:57:07.660Z,2.60
2019-04-26T08:59:47.440Z,2.60
2019-04-26T09:02:42.693Z,2.20
2019-04-26T09:05:35.847Z,2.43
2019-04-26T09:08:11.755Z,2.53
2019-04-26T09:10:48.265Z,2.87
2019-04-26T09:13:24.831Z,2.37
2019-04-26T09:16:04.032Z,2.30
2019-04-26T09:18:43.510Z,2.80
2019-04-26T09:21:17.061Z,4.20
2019-04-26T09:24:08.271Z,2.50
2019-04-26T09:26:46.606Z,2.77
2019-04-26T09:29:26.292Z,2.60
2019-04-26T09:32:02.658Z,2.53
2019-04-26T09:34:36.675Z,2.60
2019-04-26T09:37:10.104Z,3.07
2019-04-26T09:39:43.856Z,2.90
2019-04-26T09:42:27.961Z,2.50
2019-04-26T09:45:03.007Z,2.70
2019-04-26T09:47:53.063Z,3.63
2019-04-26T09:50:28.136Z,4.37
2019-04-26T09:53:01.552Z,3.17
2019-04-26T09:55:35.877Z,2.63
2019-04-26T09:58:09.581Z,2.37
2019-04-26T10:00:44.040Z,3.10
2019-04-26T10:03:18.818Z,3.70
2019-04-26T10:05:55.731Z,2.23
2019-04-26T10:08:27.387Z,3.70
2019-04-26T10:11:00.884Z,2.50
2019-04-26T10:13:51.872Z,2.20
2019-04-26T10:16:29.931Z,3.07
2019-04-26T10:19:04.987Z,2.60
2019-04-26T10:21:38.433Z,2.20
2019-04-26T10:24:11.918Z,2.63
2019-04-26T10:26:45.343Z,3.20
2019-04-26T10:29:21.746Z,2.50
2019-04-26T10:31:53.939Z,10.50
2019-04-26T10:34:27.364Z,8.93
2019-04-26T10:37:01.579Z,4.57
2019-04-26T10:39:37.059Z,2.60
2019-04-26T10:42:11.157Z,1.80
2019-04-26T10:44:44.638Z,2.60
2019-04-26T10:47:18.322Z,2.37
2019-04-26T10:49:54.392Z,2.10
2019-04-26T10:52:40.554Z,2.27
2019-04-26T10:55:18.892Z,2.10
2019-04-26T10:57:57.363Z,2.33
2019-04-26T11:00:38.359Z,2.60
2019-04-26T11:03:12.204Z,3.73
2019-04-26T11:05:45.691Z,2.57
2019-04-26T11:08:19.109Z,2.60
2019-04-26T11:10:52.696Z,2.57
2019-04-26T11:13:26.284Z,5.30
2019-04-26T11:16:02.506Z,4.50
2019-04-26T11:18:34.871Z,10.77
2019-04-26T11:21:08.295Z,3.30
2019-04-26T11:23:45.460Z,3.30
2019-04-26T11:26:16.901Z,3.20
2019-04-26T11:28:51.293Z,3.43
2019-04-26T11:31:27.705Z,3.53
2019-04-26T11:34:05.411Z,3.37
2019-04-26T11:36:37.598Z,3.70
2019-04-26T11:39:11.495Z,3.80
2019-04-26T11:41:44.957Z,3.10
2019-04-26T11:44:18.415Z,3.40
2019-04-26T11:46:52.071Z,3.10
2019-04-26T11:49:25.514Z,3.10
2019-04-26T11:52:02.896Z,3.40
2019-04-26T11:54:34.075Z,3.20
2019-04-26T11:57:08.177Z,3.67
2019-04-26T11:59:42.652Z,3.57
2019-04-26T12:02:17.249Z,3.60
2019-04-26T12:05:09.091Z,4.03
2019-04-26T12:07:56.378Z,3.00
2019-04-26T12:10:30.074Z,3.60
2019-04-26T12:13:05.879Z,3.43
2019-04-26T12:15:43.262Z,3.17
2019-04-26T12:18:14.156Z,3.80
2019-04-26T12:20:47.622Z,3.90
2019-04-26T12:23:21.877Z,3.90
2019-04-26T12:25:55.425Z,3.77
2019-04-26T12:28:28.840Z,3.83
2019-04-26T12:31:02.260Z,3.90
2019-04-26T12:33:39.035Z,4.03
2019-04-26T12:36:13.322Z,3.90
2019-04-26T12:38:46.444Z,3.90
2019-04-26T12:41:25.264Z,3.90
2019-04-26T12:43:59.628Z,3.53
2019-04-26T12:46:31.988Z,4.13
2019-04-26T12:49:05.812Z,3.40
2019-04-26T12:51:42.761Z,3.70
2019-04-26T12:54:14.452Z,4.10
2019-04-26T12:56:47.867Z,4.27
2019-04-26T12:59:22.403Z,3.90
2019-04-26T13:02:05.591Z,3.90
2019-04-26T13:04:36.354Z,3.60
2019-04-26T13:07:22.633Z,3.43
2019-04-26T13:10:05.944Z,3.63
2019-04-26T13:12:43.788Z,3.00
2019-04-26T13:15:46.205Z,3.03
2019-04-26T13:18:20.335Z,3.60
2019-04-26T13:20:53.833Z,3.70
2019-04-26T13:23:29.964Z,3.47
2019-04-26T13:26:02.409Z,3.27
2019-04-26T13:28:35.828Z,3.57
2019-04-26T13:31:09.261Z,3.50
2019-04-26T13:33:42.671Z,3.27
2019-04-26T13:36:16.112Z,3.60
2019-04-26T13:38:49.531Z,3.50
2019-04-26T13:41:22.970Z,3.10
2019-04-26T13:43:57.205Z,3.03
2019-04-26T13:46:33.335Z,3.00
2019-04-26T13:49:08.416Z,3.20
2019-04-26T13:51:43.541Z,3.10
2019-04-26T13:54:20.971Z,3.20
2019-04-26T13:56:52.120Z,3.10
2019-04-26T13:59:28.196Z,3.40
2019-04-26T14:02:10.838Z,2.90
2019-04-26T14:04:37.183Z,2.80
2019-04-26T14:07:10.975Z,3.07
2019-04-26T14:09:44.396Z,2.80
2019-04-26T14:12:18.985Z,3.03
2019-04-26T14:14:52.627Z,2.57
2019-04-26T14:17:29.542Z,2.93
2019-04-26T14:20:01.188Z,3.10
2019-04-26T14:22:36.961Z,3.30
2019-04-26T14:25:15.546Z,3.10
2019-04-26T14:27:51.585Z,2.60
2019-04-26T14:30:25.312Z,2.80
2019-04-26T14:32:58.869Z,2.83
2019-04-26T14:35:32.543Z,3.00
2019-04-26T14:38:05.971Z,3.00
2019-04-26T14:40:43.038Z,2.77
2019-04-26T14:43:18.341Z,2.90
2019-04-26T14:45:55.591Z,2.90
2019-04-26T14:48:35.313Z,3.40
2019-04-26T14:51:07.877Z,3.20
2019-04-26T14:53:36.285Z,3.13
2019-04-26T14:56:10.276Z,3.30
2019-04-26T14:58:43.704Z,3.37
2019-04-26T15:01:28.444Z,2.90
2019-04-26T15:04:20.319Z,3.23
2019-04-26T15:07:05.491Z,3.60
2019-04-26T15:09:37.663Z,3.43
2019-04-26T15:12:14.015Z,3.23
2019-04-26T15:14:49.350Z,3.63
2019-04-26T15:17:24.805Z,3.67
2019-04-26T15:19:56.523Z,3.43
2019-04-26T15:22:29.940Z,3.77
2019-04-26T15:25:07.718Z,4.13
2019-04-26T15:27:40.052Z,3.60
2019-04-26T15:30:14.326Z,3.50
2019-04-26T15:32:47.735Z,3.77
2019-04-26T15:35:22.996Z,4.33
2019-04-26T15:37:57.481Z,4.37
2019-04-26T15:40:35.055Z,6.33
2019-04-26T15:43:24.979Z,4.80
2019-04-26T15:46:17.871Z,4.47
2019-04-26T15:48:55.772Z,6.10
2019-04-26T15:51:32.402Z,3.90
2019-04-26T15:54:06.267Z,4.00
2019-04-26T15:56:39.680Z,4.50
2019-04-26T15:59:13.119Z,4.43
2019-04-26T16:01:49.188Z,4.20
2019-04-26T16:04:22.216Z,3.80
2019-04-26T16:06:56.911Z,4.23
2019-04-26T16:09:30.339Z,4.03
2019-04-26T16:12:03.873Z,3.87
2019-04-26T16:14:37.331Z,3.60
2019-04-26T16:17:12.348Z,3.73
2019-04-26T16:19:45.907Z,3.73
2019-04-26T16:22:19.315Z,3.70
2019-04-26T16:24:53.161Z,3.57
2019-04-26T16:27:30.948Z,3.90
2019-04-26T16:30:06.199Z,4.40
2019-04-26T16:32:58.999Z,4.60
2019-04-26T16:35:32.467Z,4.90
2019-04-26T16:38:23.660Z,4.40
2019-04-26T16:40:57.166Z,4.53
2019-04-26T16:43:39.547Z,4.73
2019-04-26T16:46:05.803Z,6.67
2019-04-26T16:48:39.215Z,5.10
2019-04-26T16:51:14.469Z,6.63
2019-04-26T16:54:03.668Z,5.57
2019-04-26T16:56:26.616Z,5.00
2019-04-26T16:58:59.614Z,5.17
2019-04-26T17:01:33.499Z,5.20
2019-04-26T17:04:11.160Z,5.13
2019-04-26T17:06:44.772Z,6.03
2019-04-26T17:09:17.496Z,4.17
2019-04-26T17:11:52.359Z,4.70
2019-04-26T17:14:25.932Z,4.60
2019-04-26T17:16:59.364Z,4.53
2019-04-26T17:19:35.851Z,4.77
2019-04-26T17:22:15.656Z,4.70
2019-04-26T17:24:53.378Z,4.47
2019-04-26T17:27:27.119Z,4.40
2019-04-26T17:30:00.543Z,5.03
2019-04-26T17:32:35.104Z,5.03
2019-04-26T17:35:08.958Z,5.17
2019-04-26T17:37:42.385Z,5.43
2019-04-26T17:40:15.803Z,5.47
2019-04-26T17:42:51.122Z,7.13
2019-04-26T17:45:24.493Z,7.27
2019-04-26T17:47:57.929Z,6.63
2019-04-26T17:50:31.367Z,5.80
2019-04-26T17:53:06.608Z,5.40
2019-04-26T17:55:41.537Z,5.77
2019-04-26T17:58:17.796Z,5.47
2019-04-26T18:00:51.525Z,5.83
2019-04-26T18:03:25.321Z,6.00
2019-04-26T18:06:00.844Z,6.07
2019-04-26T18:08:41.153Z,6.47
2019-04-26T18:11:18.961Z,7.10
2019-04-26T18:13:47.251Z,8.60
2019-04-26T18:16:22.268Z,7.07
2019-04-26T18:19:10.324Z,7.70
2019-04-26T18:21:56.535Z,7.77
2019-04-26T18:24:27.638Z,7.60
2019-04-26T18:27:03.436Z,7.53
2019-04-26T18:29:36.819Z,7.30
2019-04-26T18:32:10.228Z,7.70
2019-04-26T18:34:43.661Z,7.57
2019-04-26T18:37:17.084Z,7.30
2019-04-26T18:39:50.515Z,7.60
2019-04-26T18:42:24.836Z,7.70
2019-04-26T18:44:59.091Z,7.23
2019-04-26T18:47:34.180Z,7.77
2019-04-26T18:50:08.232Z,7.43
2019-04-26T18:52:49.028Z,7.90
2019-04-26T18:55:29.239Z,7.30
2019-04-26T18:58:03.575Z,7.90
2019-04-26T19:00:36.389Z,7.47
2019-04-26T19:03:09.884Z,7.80
2019-04-26T19:05:43.308Z,8.33
2019-04-26T19:08:20.810Z,7.87
2019-04-26T19:10:59.180Z,7.60
2019-04-26T19:13:40.915Z,6.77
2019-04-26T19:16:28.191Z,7.00
2019-04-26T19:19:03.271Z,6.80
2019-04-26T19:21:40.271Z,6.53
2019-04-26T19:24:19.463Z,6.90
2019-04-26T19:26:49.885Z,7.37
2019-04-26T19:29:32.738Z,7.10
2019-04-26T19:32:01.552Z,7.00
2019-04-26T19:34:34.011Z,6.53
2019-04-26T19:37:07.432Z,9.90
2019-04-26T19:39:42.608Z,6.83
2019-04-26T19:42:16.011Z,7.37
2019-04-26T19:45:10.771Z,7.00
2019-04-26T19:47:29.175Z,7.23
2019-04-26T19:50:09.778Z,7.13
2019-04-26T19:52:45.049Z,7.13
2019-04-26T19:55:22.114Z,6.47
2019-04-26T19:57:57.253Z,6.90
2019-04-26T20:00:32.347Z,6.93
2019-04-26T20:03:08.605Z,7.20
2019-04-26T20:06:00.500Z,7.40
2019-04-26T20:08:35.324Z,7.43
2019-04-26T20:11:12.816Z,7.80
2019-04-26T20:13:46.863Z,7.43
2019-04-26T20:16:19.364Z,7.53
2019-04-26T20:18:52.780Z,7.80
2019-04-26T20:21:26.213Z,8.03
2019-04-26T20:24:01.238Z,8.00
2019-04-26T20:26:37.406Z,7.90
2019-04-26T20:29:11.464Z,8.83
2019-04-26T20:31:49.303Z,8.83
2019-04-26T20:34:22.719Z,8.20
2019-04-26T20:36:56.147Z,7.87
2019-04-26T20:39:29.562Z,8.13
2019-04-26T20:42:04.080Z,8.20
2019-04-26T20:44:49.096Z,8.13
2019-04-26T20:47:17.389Z,8.40
2019-04-26T20:49:54.174Z,8.37
2019-04-26T20:52:24.961Z,8.20
2019-04-26T20:54:58.393Z,8.67
2019-04-26T20:57:34.391Z,8.03
2019-04-26T21:00:08.795Z,8.30
2019-04-26T21:02:42.227Z,8.50
2019-04-26T21:05:15.651Z,8.37
2019-04-26T21:07:49.911Z,8.90
2019-04-26T21:10:25.691Z,8.73
2019-04-26T21:12:59.376Z,8.63
2019-04-26T21:15:35.877Z,8.10
2019-04-26T21:18:08.424Z,9.60
2019-04-26T21:20:42.552Z,8.50
2019-04-26T21:23:16.243Z,8.60
2019-04-26T21:25:52.426Z,8.27
2019-04-26T21:28:33.328Z,8.47
2019-04-26T21:31:08.690Z,8.53
2019-04-26T21:34:00.156Z,8.97
2019-04-26T21:36:46.045Z,8.60
2019-04-26T21:39:23.615Z,9.37
2019-04-26T21:41:58.695Z,9.40
2019-04-26T21:44:32.114Z,9.30
2019-04-26T21:47:05.542Z,9.80
2019-04-26T21:49:38.963Z,9.53
2019-04-26T21:52:13.620Z,8.93
2019-04-26T21:54:48.492Z,9.50
2019-04-26T21:57:27.893Z,9.70
2019-04-26T21:59:57.759Z,9.17
2019-04-26T22:02:34.751Z,9.50
2019-04-26T22:05:08.089Z,9.43
2019-04-26T22:07:44.650Z,9.40
2019-04-26T22:10:18.463Z,9.57
2019-04-26T22:12:51.888Z,9.03
2019-04-26T22:15:37.607Z,9.97
2019-04-26T22:18:15.315Z,9.77
2019-04-26T22:20:52.158Z,9.93
2019-04-26T22:23:26.448Z,9.57
2019-04-26T22:26:00.138Z,9.43
2019-04-26T22:28:36.006Z,9.90
2019-04-26T22:31:10.168Z,9.57
2019-04-26T22:33:44.660Z,9.97
2019-04-26T22:36:19.062Z,9.90
2019-04-26T22:38:55.633Z,9.07
2019-04-26T22:41:28.656Z,9.90
2019-04-26T22:44:09.992Z,9.70
2019-04-26T22:46:49.587Z,10.07
2019-04-26T22:49:23.335Z,10.13
2019-04-26T22:51:56.752Z,9.93
2019-04-26T22:54:30.191Z,10.07
2019-04-26T22:57:03.963Z,9.80
2019-04-26T22:59:38.236Z,9.73
2019-04-26T23:02:18.277Z,9.80
2019-04-26T23:04:49.796Z,9.90
2019-04-26T23:07:25.986Z,10.90
2019-04-26T23:09:58.379Z,10.80
2019-04-26T23:12:36.503Z,10.50
2019-04-26T23:15:23.977Z,10.60
2019-04-26T23:18:08.348Z,10.70
2019-04-26T23:20:43.098Z,10.20
2019-04-26T23:23:16.494Z,10.10
2019-04-26T23:25:49.928Z,10.40
2019-04-26T23:28:23.356Z,10.60
2019-04-26T23:30:56.859Z,10.60
2019-04-26T23:33:30.272Z,10.50
2019-04-26T23:36:03.708Z,10.00
2019-04-26T23:38:37.715Z,10.27
2019-04-26T23:41:11.343Z,10.90
2019-04-26T23:43:44.762Z,10.43
2019-04-26T23:46:18.853Z,10.50
2019-04-26T23:48:53.824Z,10.70
2019-04-26T23:51:27.550Z,10.97
2019-04-26T23:54:00.975Z,10.40
2019-04-26T23:56:34.411Z,11.27
2019-04-26T23:59:07.826Z,11.90
